KDPA/DPA METAR and TAF weather

Enter ICAO airport designator
Station Type Date Time Source
KDPA METAR 2018/04/27 00:52 UTC NOAA

KDPA 270052Z AUTO 27005KT 10SM CLR 16/M02 A2982 RMK AO2 SLP100 T01611022


Station Type Date Time Source
KDPA Decoded METAR 2018/04/27 00:52 UTC NOAA

CHICAGO/WEST CH DUPAGE, IL, United States (KDPA) 41-54N 88-15W 230M
Apr 26, 2018 - 08:52 PM EDT / 2018.04.27 0052 UTC
Wind: from the W (270 degrees) at 6 MPH (5 KT):0
Visibility: 10 mile(s):0
Sky conditions: clear
Temperature: 61.0 F (16.1 C)
Dew Point: 28.0 F (-2.2 C)
Relative Humidity: 28%
Pressure (altimeter): 29.82 in. Hg (1009 hPa)
ob: KDPA 270052Z AUTO 27005KT 10SM CLR 16/M02 A2982 RMK AO2 SLP100 T01611022
cycle: 1

Station Type Date Time Source
KDPA TAF 2018/04/26 20:06 UTC NOAA

TAF
AMD KDPA 262002Z 2620/2718 23008KT P6SM SCT120 BKN250
FM270800 33010G16KT P6SM BKN120
FM271300 34007KT P6SM FEW200
FM271700 28008KT P6SM FEW200


Example: see airport list